Terminal Aerodrome Forecast
Issued by NWS

Home | Current Version | Previous Version | Text Only | Print | Product List | Glossary On
Versions: 1 2 3 4 5 6 7 8 9 10 11 12
000
FTUS46 KSEW 251700
TAFBFI
TAF
KBFI 251740Z 2518/2618 15003KT P6SM BKN050
     FM252000 18003KT P6SM FEW025 BKN050
     FM252300 31006KT P6SM SCT050
     FM260700 17005KT P6SM SCT050 SCT100=

USA.gov is the U.S. government's official web portal to all federal, state and local government web resources and services.